createdAt,value
2019-04-11T00:01:54.796Z,60.83
2019-04-11T00:06:49.899Z,57.83
2019-04-11T00:11:44.602Z,61.83
2019-04-11T00:16:39.486Z,58.40
2019-04-11T00:21:34.968Z,56.23
2019-04-11T00:26:30.576Z,59.87
2019-04-11T00:31:25.303Z,59.63
2019-04-11T00:36:20.115Z,60.33
2019-04-11T00:41:15.479Z,56.77
2019-04-11T00:46:10.493Z,56.87
2019-04-11T00:51:05.268Z,57.27
2019-04-11T00:55:59.934Z,53.73
2019-04-11T01:00:55.565Z,55.03
2019-04-11T01:05:50.373Z,52.17
2019-04-11T01:10:45.649Z,49.80
2019-04-11T01:15:42.813Z,50.60
2019-04-11T01:20:37.747Z,50.03
2019-04-11T01:25:32.714Z,48.83
2019-04-11T01:30:33.532Z,50.33
2019-04-11T01:35:28.988Z,50.87
2019-04-11T01:40:23.747Z,53.97
2019-04-11T01:45:21.218Z,45.23
2019-04-11T01:50:17.582Z,47.07
2019-04-11T01:55:12.613Z,51.10
2019-04-11T02:00:10.880Z,46.60
2019-04-11T02:05:16.752Z,49.60
2019-04-11T02:10:13.021Z,46.80
2019-04-11T02:15:10.188Z,47.60
2019-04-11T02:20:09.111Z,48.07
2019-04-11T02:25:12.275Z,47.83
2019-04-11T02:30:11.202Z,50.20
2019-04-11T02:35:08.476Z,52.83
2019-04-11T02:40:05.413Z,51.83
2019-04-11T02:45:18.063Z,52.43
2019-04-11T02:49:59.148Z,50.07
2019-04-11T02:54:54.510Z,52.00
2019-04-11T02:59:51.141Z,51.23
2019-04-11T03:04:47.958Z,51.90
2019-04-11T03:09:44.067Z,51.33
2019-04-11T03:15:01.047Z,49.30
2019-04-11T03:19:47.629Z,44.43
2019-04-11T03:24:35.230Z,42.90
2019-04-11T03:29:30.510Z,46.23
2019-04-11T03:35:17.004Z,47.23
2019-04-11T03:39:48.972Z,44.40
2019-04-11T03:44:25.431Z,42.70
2019-04-11T03:49:27.847Z,43.33
2019-04-11T03:54:13.684Z,46.00
2019-04-11T03:59:13.692Z,44.67
2019-04-11T04:04:06.622Z,44.73
2019-04-11T04:09:02.748Z,44.97
2019-04-11T04:14:02.178Z,47.20
2019-04-11T04:19:11.726Z,42.07
2019-04-11T04:24:08.617Z,45.63
2019-04-11T04:29:04.443Z,42.17
2019-04-11T04:33:59.647Z,39.80
2019-04-11T04:38:57.168Z,42.00
2019-04-11T04:43:52.894Z,42.03
2019-04-11T04:48:51.019Z,45.60
2019-04-11T04:53:45.297Z,41.23
2019-04-11T04:58:42.007Z,42.07
2019-04-11T05:03:37.899Z,42.57
2019-04-11T05:08:34.574Z,42.80
2019-04-11T05:13:30.195Z,41.03
2019-04-11T05:18:25.882Z,37.37
2019-04-11T05:23:21.409Z,40.77
2019-04-11T05:28:16.147Z,38.37
2019-04-11T05:33:11.614Z,39.13
2019-04-11T05:38:06.656Z,32.37
2019-04-11T05:43:01.818Z,34.17
2019-04-11T05:47:58.321Z,35.67
2019-04-11T05:52:54.585Z,32.10
2019-04-11T05:57:50.629Z,31.90
2019-04-11T06:02:47.081Z,35.70
2019-04-11T06:07:55.955Z,32.93
2019-04-11T06:12:51.154Z,33.57
2019-04-11T06:17:48.174Z,32.30
2019-04-11T06:22:45.597Z,34.00
2019-04-11T06:27:42.814Z,34.33
2019-04-11T06:32:38.385Z,36.27
2019-04-11T06:37:41.341Z,34.67
2019-04-11T06:42:47.867Z,33.97
2019-04-11T06:47:47.594Z,34.97
2019-04-11T06:52:45.145Z,32.87
2019-04-11T06:57:42.425Z,31.50
2019-04-11T07:02:38.980Z,35.40
2019-04-11T07:07:35.657Z,33.77
2019-04-11T07:12:35.682Z,34.93
2019-04-11T07:17:48.505Z,31.73
2019-04-11T07:23:01.595Z,36.00
2019-04-11T07:28:10.599Z,36.43
2019-04-11T07:33:24.351Z,32.67
2019-04-11T07:38:22.819Z,33.50
2019-04-11T07:43:19.526Z,37.17
2019-04-11T07:48:22.056Z,31.63
2019-04-11T07:53:19.626Z,36.17
2019-04-11T07:58:23.790Z,34.73
2019-04-11T08:03:26.023Z,35.53
2019-04-11T08:08:26.565Z,40.13
2019-04-11T08:13:40.952Z,43.33
2019-04-11T08:18:46.109Z,35.13
2019-04-11T08:23:43.545Z,40.63
2019-04-11T08:28:39.313Z,39.90
2019-04-11T08:33:35.007Z,36.40
2019-04-11T08:38:32.238Z,40.87
2019-04-11T08:43:37.465Z,37.50
2019-04-11T08:48:35.055Z,36.50
2019-04-11T08:53:48.992Z,36.33
2019-04-11T08:59:09.098Z,36.80
2019-04-11T09:04:09.997Z,40.00
2019-04-11T09:09:11.249Z,35.30
2019-04-11T09:14:15.751Z,37.90
2019-04-11T09:19:18.843Z,35.33
2019-04-11T09:24:30.534Z,37.73
2019-04-11T09:29:36.140Z,31.70
2019-04-11T09:34:35.654Z,32.97
2019-04-11T09:39:39.238Z,37.70
2019-04-11T09:44:39.299Z,32.87
2019-04-11T09:49:37.608Z,32.30
2019-04-11T09:54:50.606Z,35.23
2019-04-11T10:00:01.829Z,34.03
2019-04-11T10:04:59.986Z,35.23
2019-04-11T10:10:02.593Z,32.67
2019-04-11T10:14:57.734Z,36.20
2019-04-11T10:19:56.140Z,35.90
2019-04-11T10:25:01.567Z,33.80
2019-04-11T10:30:00.929Z,34.43
2019-04-11T10:35:00.167Z,37.03
2019-04-11T10:40:17.722Z,38.17
2019-04-11T10:45:32.395Z,37.87
2019-04-11T10:50:42.377Z,39.03
2019-04-11T10:55:49.623Z,40.60
2019-04-11T11:00:48.749Z,40.83
2019-04-11T11:05:45.115Z,36.40
2019-04-11T11:10:40.460Z,35.60
2019-04-11T11:15:36.230Z,36.23
2019-04-11T11:20:55.745Z,38.03
2019-04-11T11:25:53.396Z,39.43
2019-04-11T11:30:49.719Z,44.43
2019-04-11T11:35:50.266Z,42.33
2019-04-11T11:41:03.869Z,39.47
2019-04-11T11:46:00.959Z,40.50
2019-04-11T11:50:57.091Z,39.77
2019-04-11T11:55:53.622Z,41.50
2019-04-11T12:00:56.133Z,44.17
2019-04-11T12:05:53.754Z,41.60
2019-04-11T12:10:51.441Z,46.17
2019-04-11T12:15:51.143Z,42.43
2019-04-11T12:20:51.295Z,46.30
2019-04-11T12:25:47.641Z,48.57
2019-04-11T12:30:44.159Z,43.13
2019-04-11T12:35:58.939Z,44.73
2019-04-11T12:41:10.993Z,43.13
2019-04-11T12:46:29.759Z,45.53
2019-04-11T12:51:21.674Z,46.50
2019-04-11T12:56:34.048Z,45.60
2019-04-11T13:01:42.596Z,43.93
2019-04-11T13:06:40.133Z,45.20
2019-04-11T13:11:46.510Z,45.47
2019-04-11T13:16:48.744Z,43.40
2019-04-11T13:21:45.664Z,49.27
2019-04-11T13:27:09.834Z,46.93
2019-04-11T13:32:30.757Z,45.03
2019-04-11T13:37:51.914Z,47.73
2019-04-11T13:43:04.702Z,47.57
2019-04-11T13:48:06.880Z,50.40
2019-04-11T13:53:19.276Z,45.07
2019-04-11T13:58:15.679Z,46.97
2019-04-11T14:03:17.435Z,47.00
2019-04-11T14:08:17.970Z,48.77
2019-04-11T14:13:13.298Z,47.97
2019-04-11T14:18:15.739Z,49.37
2019-04-11T14:23:18.135Z,45.60
2019-04-11T14:28:17.339Z,48.87
2019-04-11T14:33:12.230Z,45.90
2019-04-11T14:38:11.617Z,44.67
2019-04-11T14:43:13.629Z,47.07
2019-04-11T14:48:19.774Z,46.83
2019-04-11T14:53:29.598Z,51.50
2019-04-11T14:58:32.110Z,53.03
2019-04-11T15:03:31.289Z,52.80
2019-04-11T15:08:38.678Z,49.70
2019-04-11T15:13:34.274Z,47.90
2019-04-11T15:18:29.579Z,49.97
2019-04-11T15:23:26.380Z,49.50
2019-04-11T15:28:25.741Z,51.03
2019-04-11T15:33:20.339Z,53.33
2019-04-11T15:38:35.249Z,53.87
2019-04-11T15:43:47.824Z,53.60
2019-04-11T15:48:42.267Z,56.10
2019-04-11T15:53:45.523Z,60.03
2019-04-11T15:58:47.515Z,59.80
2019-04-11T16:03:42.172Z,62.40
2019-04-11T16:08:39.518Z,63.20
2019-04-11T16:13:42.524Z,58.80
2019-04-11T16:18:41.566Z,64.47
2019-04-11T16:23:47.698Z,69.87
2019-04-11T16:28:59.768Z,60.23
2019-04-11T16:34:07.746Z,63.10
2019-04-11T16:39:02.162Z,60.47
2019-04-11T16:44:10.678Z,59.63
2019-04-11T16:49:05.464Z,59.77
2019-04-11T16:54:00.107Z,55.47
2019-04-11T16:58:54.739Z,56.33
2019-04-11T17:03:49.398Z,51.63
2019-04-11T17:08:45.725Z,51.97
2019-04-11T17:13:40.374Z,54.37
2019-04-11T17:18:35.118Z,50.93
2019-04-11T17:23:29.853Z,51.03
2019-04-11T17:28:24.516Z,48.70
2019-04-11T17:33:19.222Z,50.90
2019-04-11T17:38:13.855Z,54.67
2019-04-11T17:43:08.577Z,53.07
2019-04-11T17:48:03.343Z,51.97
2019-04-11T17:52:58.153Z,48.27
2019-04-11T17:57:54.907Z,49.23
2019-04-11T18:02:49.244Z,48.03
2019-04-11T18:07:47.096Z,50.97
2019-04-11T18:12:40.424Z,46.73
2019-04-11T18:17:35.574Z,48.27
2019-04-11T18:22:30.416Z,50.53
2019-04-11T18:27:25.265Z,51.20
2019-04-11T18:32:19.979Z,44.17
2019-04-11T18:37:14.629Z,52.57
2019-04-11T18:42:09.404Z,52.00
2019-04-11T18:47:04.192Z,53.03
2019-04-11T18:51:58.835Z,51.63
2019-04-11T18:56:53.720Z,53.40
2019-04-11T19:01:48.529Z,50.10
2019-04-11T19:06:43.698Z,52.80
2019-04-11T19:11:38.731Z,53.73
2019-04-11T19:16:33.378Z,55.27
2019-04-11T19:21:28.080Z,58.83
2019-04-11T19:26:23.114Z,59.40
2019-04-11T19:31:17.804Z,57.27
2019-04-11T19:36:12.898Z,55.00
2019-04-11T19:41:07.791Z,51.77
2019-04-11T19:46:02.554Z,52.53
2019-04-11T19:50:58.990Z,56.73
2019-04-11T19:55:58.144Z,58.93
2019-04-11T20:00:53.872Z,54.67
2019-04-11T20:05:48.854Z,56.07
2019-04-11T20:10:44.383Z,57.17
2019-04-11T20:16:41.459Z,67.50
2019-04-11T20:21:30.492Z,53.60
2019-04-11T20:26:25.166Z,55.00
2019-04-11T20:31:19.716Z,53.47
2019-04-11T20:36:14.285Z,57.67
2019-04-11T20:41:09.547Z,53.20
2019-04-11T20:46:04.357Z,49.33
2019-04-11T20:50:59.065Z,54.70
2019-04-11T20:55:53.637Z,52.33
2019-04-11T21:00:50.652Z,44.23
2019-04-11T21:05:44.529Z,48.60
2019-04-11T21:10:39.089Z,47.93
2019-04-11T21:15:33.655Z,47.90
2019-04-11T21:20:28.217Z,43.90
2019-04-11T21:25:22.800Z,45.40
2019-04-11T21:30:17.587Z,42.47
2019-04-11T21:35:12.324Z,40.70
2019-04-11T21:40:08.423Z,41.30
2019-04-11T21:45:05.936Z,41.10
2019-04-11T21:49:59.396Z,45.73
2019-04-11T21:54:53.991Z,42.87
2019-04-11T21:59:51.279Z,40.83
2019-04-11T22:04:44.857Z,39.83
2019-04-11T22:09:39.479Z,39.00
2019-04-11T22:14:34.058Z,40.50
2019-04-11T22:19:33.513Z,41.17
2019-04-11T22:24:33.136Z,38.13
2019-04-11T22:29:32.808Z,38.00
2019-04-11T22:34:34.109Z,43.70
2019-04-11T22:39:31.489Z,45.10
2019-04-11T22:44:25.552Z,42.27
2019-04-11T22:49:21.118Z,45.47
2019-04-11T22:54:15.686Z,44.63
2019-04-11T22:59:13.745Z,45.13
2019-04-11T23:04:06.564Z,51.43
2019-04-11T23:09:01.104Z,44.67
2019-04-11T23:13:55.839Z,44.37
2019-04-11T23:18:50.404Z,43.63
2019-04-11T23:23:46.338Z,49.50
2019-04-11T23:28:46.736Z,40.93
2019-04-11T23:33:41.251Z,37.47
2019-04-11T23:38:39.227Z,38.63
2019-04-11T23:43:41.100Z,38.23
2019-04-11T23:48:35.896Z,36.30
2019-04-11T23:53:39.337Z,41.73
2019-04-11T23:58:39.404Z,39.87
